EJU64BU LEPA-EGPF
Flight info
| Callsign | EJU64BU |
|---|---|
| Flight time | 2h 32m |
| Altitude | 38000 |
| Route | DRAGO N863 GIROM DCT AGN DCT SECHE DCT UVELI DCT CNA DCT TUPAR UN861 ANG DCT AKIKI UN867 VASUX DCT TNT UN57 POL UN601 RIBEL DCT ASLIB |
| Aircraft | A319/M-SDE2E3FGIJ1RWXYZ/LB1 |
Departure
| Time | 2026-05-05 05:28 |
|---|---|
| Airport | Palma de Mallorca Airport (LEPA) |
Arrival
| Time | 2026-05-05 08:01 |
|---|---|
| Airport | Glasgow Airport (EGPF) |
| Time | Latitude | Longitude | Altitude | Speed | Heading |
|---|---|---|---|---|---|
| 2026-05-05 04:59 | 39.55028 | 2.73491 | 29 ft | 0 kts | 163° |
| 2026-05-05 05:16 | 39.55030 | 2.73491 | 29 ft | 2 kts | 163° |
| 2026-05-05 05:17 | 39.55047 | 2.73483 | 30 ft | 3 kts | 153° |
| 2026-05-05 05:17 | 39.55064 | 2.73469 | 30 ft | 3 kts | 136° |
| 2026-05-05 05:17 | 39.55076 | 2.73450 | 30 ft | 3 kts | 112° |
| 2026-05-05 05:17 | 39.55081 | 2.73426 | 30 ft | 3 kts | 88° |
| 2026-05-05 05:18 | 39.55078 | 2.73401 | 30 ft | 3 kts | 70° |
| 2026-05-05 05:18 | 39.55070 | 2.73377 | 30 ft | 3 kts | 60° |
| 2026-05-05 05:18 | 39.55064 | 2.73364 | 30 ft | 0 kts | 59° |
| 2026-05-05 05:20 | 39.55065 | 2.73365 | 30 ft | 0 kts | 59° |
| 2026-05-05 05:21 | 39.55066 | 2.73367 | 30 ft | 2 kts | 59° |
| 2026-05-05 05:21 | 39.55081 | 2.73395 | 30 ft | 5 kts | 53° |
| 2026-05-05 05:21 | 39.55104 | 2.73434 | 30 ft | 6 kts | 53° |
| 2026-05-05 05:21 | 39.55128 | 2.73484 | 30 ft | 7 kts | 58° |
| 2026-05-05 05:22 | 39.55160 | 2.73552 | 30 ft | 10 kts | 58° |
| 2026-05-05 05:22 | 39.55176 | 2.73636 | 30 ft | 11 kts | 106° |
| 2026-05-05 05:22 | 39.55174 | 2.73736 | 30 ft | 12 kts | 112° |
| 2026-05-05 05:22 | 39.55202 | 2.73823 | 30 ft | 13 kts | 6° |
| 2026-05-05 05:23 | 39.55289 | 2.73765 | 30 ft | 15 kts | 329° |
| 2026-05-05 05:23 | 39.55380 | 2.73693 | 30 ft | 16 kts | 329° |
| 2026-05-05 05:23 | 39.55474 | 2.73619 | 30 ft | 16 kts | 328° |
| 2026-05-05 05:23 | 39.55568 | 2.73545 | 30 ft | 13 kts | 328° |
| 2026-05-05 05:24 | 39.55647 | 2.73492 | 30 ft | 11 kts | 6° |
| 2026-05-05 05:24 | 39.55691 | 2.73579 | 30 ft | 12 kts | 60° |
| 2026-05-05 05:24 | 39.55733 | 2.73667 | 30 ft | 12 kts | 56° |
| 2026-05-05 05:24 | 39.55783 | 2.73762 | 30 ft | 14 kts | 56° |
| 2026-05-05 05:25 | 39.55843 | 2.73883 | 30 ft | 17 kts | 58° |
| 2026-05-05 05:25 | 39.55908 | 2.74015 | 30 ft | 17 kts | 58° |
| 2026-05-05 05:25 | 39.55967 | 2.74151 | 30 ft | 17 kts | 61° |
| 2026-05-05 05:25 | 39.56028 | 2.74288 | 30 ft | 18 kts | 59° |
| 2026-05-05 05:26 | 39.56091 | 2.74421 | 30 ft | 16 kts | 55° |
| 2026-05-05 05:26 | 39.56110 | 2.74444 | 30 ft | 0 kts | 35° |
| 2026-05-05 05:26 | 39.56114 | 2.74448 | 30 ft | 1 kts | 34° |
| 2026-05-05 05:26 | 39.56145 | 2.74457 | 30 ft | 7 kts | 2° |
| 2026-05-05 05:27 | 39.56204 | 2.74423 | 30 ft | 12 kts | 328° |
| 2026-05-05 05:27 | 39.56259 | 2.74356 | 30 ft | 11 kts | 275° |
| 2026-05-05 05:27 | 39.56182 | 2.74159 | 30 ft | 29 kts | 238° |
| 2026-05-05 05:28 | 39.55935 | 2.73641 | 30 ft | 103 kts | 238° |
| 2026-05-05 05:28 | 39.55452 | 2.72621 | 35 ft | 159 kts | 238° |
| 2026-05-05 05:28 | 39.54869 | 2.71382 | 622 ft | 161 kts | 238° |
| 2026-05-05 05:28 | 39.54288 | 2.70147 | 1327 ft | 159 kts | 237° |
| 2026-05-05 05:29 | 39.53687 | 2.68940 | 2002 ft | 163 kts | 236° |
| 2026-05-05 05:29 | 39.53026 | 2.67652 | 2395 ft | 183 kts | 236° |
| 2026-05-05 05:29 | 39.52274 | 2.66187 | 2801 ft | 203 kts | 235° |
| 2026-05-05 05:29 | 39.51482 | 2.64643 | 3557 ft | 208 kts | 235° |
| 2026-05-05 05:30 | 39.50676 | 2.63067 | 4368 ft | 211 kts | 235° |
| 2026-05-05 05:30 | 39.49859 | 2.61466 | 5159 ft | 215 kts | 235° |
| 2026-05-05 05:30 | 39.49024 | 2.59839 | 5949 ft | 218 kts | 235° |
| 2026-05-05 05:30 | 39.48180 | 2.58192 | 6736 ft | 221 kts | 236° |
| 2026-05-05 05:31 | 39.47330 | 2.56530 | 7527 ft | 222 kts | 236° |
| 2026-05-05 05:31 | 39.46474 | 2.54852 | 8331 ft | 224 kts | 236° |
| 2026-05-05 05:31 | 39.45615 | 2.53169 | 9151 ft | 225 kts | 236° |
| 2026-05-05 05:31 | 39.44937 | 2.51290 | 9662 ft | 245 kts | 259° |
| 2026-05-05 05:32 | 39.45136 | 2.49001 | 9993 ft | 274 kts | 290° |
| 2026-05-05 05:32 | 39.46366 | 2.46964 | 10273 ft | 306 kts | 318° |
| 2026-05-05 05:32 | 39.48143 | 2.45316 | 10528 ft | 331 kts | 322° |
| 2026-05-05 05:32 | 39.50118 | 2.43610 | 10876 ft | 349 kts | 323° |
| 2026-05-05 05:33 | 39.52176 | 2.41881 | 11543 ft | 355 kts | 323° |
| 2026-05-05 05:33 | 39.54247 | 2.40125 | 12297 ft | 357 kts | 321° |
| 2026-05-05 05:33 | 39.56105 | 2.38016 | 13071 ft | 355 kts | 310° |
| 2026-05-05 05:33 | 39.57817 | 2.35699 | 13833 ft | 357 kts | 309° |
| 2026-05-05 05:34 | 39.59533 | 2.33357 | 14526 ft | 359 kts | 309° |
| 2026-05-05 05:34 | 39.61257 | 2.30997 | 15204 ft | 361 kts | 308° |
| 2026-05-05 05:34 | 39.62989 | 2.28624 | 15871 ft | 364 kts | 308° |
| 2026-05-05 05:34 | 39.64731 | 2.26235 | 16543 ft | 366 kts | 308° |
| 2026-05-05 05:35 | 39.66487 | 2.23828 | 17208 ft | 368 kts | 308° |
| 2026-05-05 05:35 | 39.68257 | 2.21404 | 17865 ft | 371 kts | 308° |
| 2026-05-05 05:35 | 39.70041 | 2.18969 | 18483 ft | 374 kts | 308° |
| 2026-05-05 05:35 | 39.71838 | 2.16514 | 19037 ft | 376 kts | 307° |
| 2026-05-05 05:36 | 39.73646 | 2.14041 | 19595 ft | 379 kts | 307° |
| 2026-05-05 05:36 | 39.75464 | 2.11542 | 20134 ft | 382 kts | 307° |
| 2026-05-05 05:36 | 39.77293 | 2.09022 | 20660 ft | 385 kts | 307° |
| 2026-05-05 05:36 | 39.79140 | 2.06479 | 21208 ft | 388 kts | 306° |
| 2026-05-05 05:37 | 39.80995 | 2.03924 | 21726 ft | 390 kts | 306° |
| 2026-05-05 05:37 | 39.82867 | 2.01350 | 22219 ft | 393 kts | 306° |
| 2026-05-05 05:37 | 39.84750 | 1.98760 | 22715 ft | 395 kts | 306° |
| 2026-05-05 05:37 | 39.86643 | 1.96148 | 23196 ft | 398 kts | 306° |
| 2026-05-05 05:38 | 39.88522 | 1.93548 | 23635 ft | 401 kts | 306° |
| 2026-05-05 05:38 | 39.90460 | 1.90863 | 24037 ft | 403 kts | 306° |
| 2026-05-05 05:38 | 39.92361 | 1.88234 | 24432 ft | 405 kts | 305° |
| 2026-05-05 05:38 | 39.94296 | 1.85562 | 24827 ft | 407 kts | 305° |
| 2026-05-05 05:39 | 39.96240 | 1.82870 | 25215 ft | 408 kts | 305° |
| 2026-05-05 05:39 | 39.98192 | 1.80168 | 25597 ft | 411 kts | 306° |
| 2026-05-05 05:39 | 40.00358 | 1.77662 | 25971 ft | 423 kts | 315° |
| 2026-05-05 05:39 | 40.02883 | 1.75594 | 26361 ft | 436 kts | 324° |
| 2026-05-05 05:40 | 40.05703 | 1.74018 | 26719 ft | 445 kts | 330° |
| 2026-05-05 05:40 | 40.08595 | 1.72549 | 27075 ft | 447 kts | 330° |
| 2026-05-05 05:40 | 40.11499 | 1.71071 | 27425 ft | 449 kts | 330° |
| 2026-05-05 05:40 | 40.14416 | 1.69581 | 27757 ft | 451 kts | 330° |
| 2026-05-05 05:41 | 40.17340 | 1.68082 | 28089 ft | 453 kts | 330° |
| 2026-05-05 05:41 | 40.20277 | 1.66570 | 28417 ft | 455 kts | 330° |
| 2026-05-05 05:41 | 40.23227 | 1.65052 | 28739 ft | 457 kts | 330° |
| 2026-05-05 05:41 | 40.26188 | 1.63529 | 29085 ft | 459 kts | 329° |
| 2026-05-05 05:42 | 40.29170 | 1.61993 | 29375 ft | 461 kts | 329° |
| 2026-05-05 05:42 | 40.32155 | 1.60451 | 29750 ft | 460 kts | 329° |
| 2026-05-05 05:42 | 40.35096 | 1.58938 | 30587 ft | 449 kts | 329° |
| 2026-05-05 05:42 | 40.37993 | 1.57450 | 31087 ft | 446 kts | 329° |
| 2026-05-05 05:43 | 40.40881 | 1.55958 | 31434 ft | 446 kts | 329° |
| 2026-05-05 05:43 | 40.43764 | 1.54463 | 31825 ft | 445 kts | 329° |
| 2026-05-05 05:43 | 40.46644 | 1.52969 | 32276 ft | 444 kts | 329° |
| 2026-05-05 05:43 | 40.49513 | 1.51480 | 32700 ft | 443 kts | 329° |
| 2026-05-05 05:44 | 40.52379 | 1.49990 | 33102 ft | 442 kts | 329° |
| 2026-05-05 05:44 | 40.55236 | 1.48503 | 33499 ft | 442 kts | 329° |
| 2026-05-05 05:44 | 40.58090 | 1.47014 | 33896 ft | 441 kts | 329° |
| 2026-05-05 05:44 | 40.60940 | 1.45524 | 34243 ft | 441 kts | 329° |
| 2026-05-05 05:45 | 40.63789 | 1.44033 | 34562 ft | 440 kts | 329° |
| 2026-05-05 05:45 | 40.66633 | 1.42547 | 34868 ft | 440 kts | 329° |
| 2026-05-05 05:45 | 40.69478 | 1.41057 | 35162 ft | 440 kts | 330° |
| 2026-05-05 05:45 | 40.72323 | 1.39571 | 35445 ft | 439 kts | 330° |
| 2026-05-05 05:46 | 40.75165 | 1.38091 | 35729 ft | 439 kts | 330° |
| 2026-05-05 05:46 | 40.78005 | 1.36611 | 36004 ft | 439 kts | 330° |
| 2026-05-05 05:46 | 40.80846 | 1.35126 | 36266 ft | 439 kts | 330° |
| 2026-05-05 05:46 | 40.83681 | 1.33636 | 36527 ft | 438 kts | 330° |
| 2026-05-05 05:47 | 40.86512 | 1.32146 | 36777 ft | 438 kts | 330° |
| 2026-05-05 05:47 | 40.89346 | 1.30656 | 37025 ft | 438 kts | 330° |
| 2026-05-05 05:47 | 40.92179 | 1.29167 | 37294 ft | 438 kts | 330° |
| 2026-05-05 05:47 | 40.95012 | 1.27673 | 37502 ft | 439 kts | 330° |
| 2026-05-05 05:48 | 40.97845 | 1.26173 | 37709 ft | 439 kts | 330° |
| 2026-05-05 05:48 | 41.00684 | 1.24669 | 37904 ft | 439 kts | 330° |
| 2026-05-05 05:48 | 41.06350 | 1.21676 | 37942 ft | 438 kts | 330° |
| 2026-05-05 05:49 | 41.12006 | 1.18694 | 37956 ft | 438 kts | 330° |
| 2026-05-05 05:49 | 41.17979 | 1.16785 | 37945 ft | 456 kts | 348° |
| 2026-05-05 05:50 | 41.24311 | 1.16144 | 37948 ft | 457 kts | 348° |
| 2026-05-05 05:50 | 41.30646 | 1.15486 | 37958 ft | 457 kts | 348° |
| 2026-05-05 05:51 | 41.36984 | 1.14815 | 37983 ft | 457 kts | 348° |
| 2026-05-05 05:51 | 41.43326 | 1.14142 | 38012 ft | 458 kts | 348° |
| 2026-05-05 05:52 | 41.49673 | 1.13470 | 38005 ft | 458 kts | 348° |
| 2026-05-05 05:52 | 41.56027 | 1.12808 | 38024 ft | 458 kts | 348° |
| 2026-05-05 05:53 | 41.62384 | 1.12141 | 38005 ft | 458 kts | 348° |
| 2026-05-05 05:53 | 41.67672 | 1.11576 | 38001 ft | 459 kts | 348° |
| 2026-05-05 05:54 | 41.74034 | 1.10900 | 38006 ft | 459 kts | 348° |
| 2026-05-05 05:54 | 41.80401 | 1.10220 | 38036 ft | 459 kts | 349° |
| 2026-05-05 05:55 | 41.86778 | 1.09539 | 38016 ft | 460 kts | 349° |
| 2026-05-05 05:55 | 41.93159 | 1.08865 | 38012 ft | 460 kts | 349° |
| 2026-05-05 05:56 | 41.99546 | 1.08188 | 38027 ft | 460 kts | 349° |
| 2026-05-05 05:56 | 42.05935 | 1.07491 | 38013 ft | 461 kts | 349° |
| 2026-05-05 05:57 | 42.12331 | 1.06792 | 38007 ft | 461 kts | 349° |
| 2026-05-05 05:57 | 42.18735 | 1.06102 | 38003 ft | 462 kts | 349° |
| 2026-05-05 05:58 | 42.25137 | 1.05421 | 38009 ft | 462 kts | 349° |
| 2026-05-05 05:58 | 42.31555 | 1.04741 | 37998 ft | 463 kts | 349° |
| 2026-05-05 05:59 | 42.37972 | 1.04050 | 37993 ft | 463 kts | 349° |
| 2026-05-05 05:59 | 42.44396 | 1.03346 | 38000 ft | 463 kts | 350° |
| 2026-05-05 06:00 | 42.50824 | 1.02647 | 37989 ft | 464 kts | 350° |
| 2026-05-05 06:00 | 42.57212 | 1.01941 | 37969 ft | 463 kts | 350° |
| 2026-05-05 06:01 | 42.63648 | 1.01242 | 38002 ft | 465 kts | 350° |
| 2026-05-05 06:01 | 42.70098 | 1.00533 | 37998 ft | 465 kts | 350° |
| 2026-05-05 06:02 | 42.76550 | 0.99823 | 37990 ft | 465 kts | 350° |
| 2026-05-05 06:02 | 42.82964 | 0.99118 | 37993 ft | 466 kts | 350° |
| 2026-05-05 06:03 | 42.89427 | 0.98406 | 37993 ft | 466 kts | 350° |
| 2026-05-05 06:03 | 42.95892 | 0.97707 | 37994 ft | 466 kts | 350° |
| 2026-05-05 06:04 | 43.02358 | 0.96993 | 38022 ft | 466 kts | 350° |
| 2026-05-05 06:04 | 43.08823 | 0.96269 | 38006 ft | 466 kts | 350° |
| 2026-05-05 06:05 | 43.15291 | 0.95556 | 38011 ft | 466 kts | 350° |
| 2026-05-05 06:05 | 43.21758 | 0.94837 | 38005 ft | 466 kts | 350° |
| 2026-05-05 06:06 | 43.28229 | 0.94114 | 38019 ft | 466 kts | 351° |
| 2026-05-05 06:06 | 43.34697 | 0.93395 | 38011 ft | 466 kts | 351° |
| 2026-05-05 06:07 | 43.41161 | 0.92666 | 38004 ft | 466 kts | 351° |
| 2026-05-05 06:07 | 43.47624 | 0.91940 | 38014 ft | 466 kts | 351° |
| 2026-05-05 06:08 | 43.54090 | 0.91209 | 38011 ft | 466 kts | 351° |
| 2026-05-05 06:08 | 43.60545 | 0.90486 | 38004 ft | 465 kts | 351° |
| 2026-05-05 06:09 | 43.66955 | 0.89768 | 38003 ft | 465 kts | 351° |
| 2026-05-05 06:09 | 43.73404 | 0.89029 | 37999 ft | 465 kts | 351° |
| 2026-05-05 06:10 | 43.79853 | 0.88296 | 37998 ft | 465 kts | 351° |
| 2026-05-05 06:10 | 43.86294 | 0.87525 | 38009 ft | 463 kts | 347° |
| 2026-05-05 06:11 | 43.92329 | 0.85029 | 37995 ft | 452 kts | 330° |
| 2026-05-05 06:11 | 43.97997 | 0.81354 | 37986 ft | 453 kts | 330° |
| 2026-05-05 06:12 | 44.03710 | 0.77670 | 38005 ft | 453 kts | 331° |
| 2026-05-05 06:12 | 44.09431 | 0.73982 | 38005 ft | 453 kts | 331° |
| 2026-05-05 06:13 | 44.15157 | 0.70282 | 37994 ft | 454 kts | 331° |
| 2026-05-05 06:13 | 44.20881 | 0.66553 | 37992 ft | 454 kts | 331° |
| 2026-05-05 06:14 | 44.26604 | 0.62823 | 37992 ft | 454 kts | 331° |
| 2026-05-05 06:14 | 44.32334 | 0.59080 | 37976 ft | 455 kts | 331° |
| 2026-05-05 06:15 | 44.38062 | 0.55327 | 37975 ft | 455 kts | 331° |
| 2026-05-05 06:15 | 44.43797 | 0.51570 | 37983 ft | 455 kts | 331° |
| 2026-05-05 06:16 | 44.49529 | 0.47789 | 37976 ft | 455 kts | 331° |
| 2026-05-05 06:16 | 44.55256 | 0.43988 | 37974 ft | 456 kts | 331° |
| 2026-05-05 06:17 | 44.60942 | 0.40205 | 37981 ft | 456 kts | 331° |
| 2026-05-05 06:17 | 44.66673 | 0.36389 | 38000 ft | 456 kts | 331° |
| 2026-05-05 06:18 | 44.72398 | 0.32558 | 37994 ft | 456 kts | 331° |
| 2026-05-05 06:18 | 44.78121 | 0.28719 | 37984 ft | 456 kts | 331° |
| 2026-05-05 06:19 | 44.83841 | 0.24881 | 37984 ft | 456 kts | 331° |
| 2026-05-05 06:19 | 44.89563 | 0.21040 | 37982 ft | 455 kts | 331° |
| 2026-05-05 06:20 | 44.95282 | 0.17180 | 37971 ft | 455 kts | 331° |
| 2026-05-05 06:20 | 45.00998 | 0.13320 | 37973 ft | 455 kts | 332° |
| 2026-05-05 06:21 | 45.06719 | 0.09460 | 37965 ft | 456 kts | 332° |
| 2026-05-05 06:21 | 45.12437 | 0.05570 | 37960 ft | 456 kts | 331° |
| 2026-05-05 06:22 | 45.18125 | 0.01691 | 37961 ft | 456 kts | 331° |
| 2026-05-05 06:22 | 45.23851 | -0.02199 | 37975 ft | 456 kts | 332° |
| 2026-05-05 06:23 | 45.29524 | -0.06067 | 37970 ft | 457 kts | 332° |
| 2026-05-05 06:23 | 45.35215 | -0.09954 | 37962 ft | 457 kts | 332° |
| 2026-05-05 06:24 | 45.40981 | -0.13906 | 37965 ft | 457 kts | 332° |
| 2026-05-05 06:24 | 45.46708 | -0.17840 | 37958 ft | 457 kts | 332° |
| 2026-05-05 06:25 | 45.52432 | -0.21788 | 37961 ft | 457 kts | 332° |
| 2026-05-05 06:25 | 45.58120 | -0.25734 | 37966 ft | 457 kts | 332° |
| 2026-05-05 06:26 | 45.63842 | -0.29700 | 37966 ft | 457 kts | 332° |
| 2026-05-05 06:26 | 45.69795 | -0.32886 | 37962 ft | 460 kts | 340° |
| 2026-05-05 06:27 | 45.78953 | -0.37006 | 37947 ft | 460 kts | 340° |
| 2026-05-05 06:28 | 45.85056 | -0.39774 | 37947 ft | 460 kts | 340° |
| 2026-05-05 06:28 | 45.91157 | -0.42544 | 37949 ft | 460 kts | 340° |
| 2026-05-05 06:29 | 45.97255 | -0.45319 | 37945 ft | 460 kts | 340° |
| 2026-05-05 06:29 | 46.03354 | -0.48093 | 37939 ft | 460 kts | 340° |
| 2026-05-05 06:30 | 46.09456 | -0.50866 | 37933 ft | 460 kts | 340° |
| 2026-05-05 06:30 | 46.15551 | -0.53659 | 37934 ft | 460 kts | 340° |
| 2026-05-05 06:31 | 46.21647 | -0.56455 | 37941 ft | 460 kts | 340° |
| 2026-05-05 06:31 | 46.27739 | -0.59258 | 37933 ft | 460 kts | 340° |
| 2026-05-05 06:32 | 46.33828 | -0.62073 | 37927 ft | 459 kts | 340° |
| 2026-05-05 06:32 | 46.39918 | -0.64890 | 37925 ft | 459 kts | 341° |
| 2026-05-05 06:33 | 46.46124 | -0.66815 | 37924 ft | 461 kts | 352° |
| 2026-05-05 06:33 | 46.52497 | -0.67874 | 37923 ft | 461 kts | 352° |
| 2026-05-05 06:34 | 46.58865 | -0.68950 | 37921 ft | 461 kts | 352° |
| 2026-05-05 06:34 | 46.65235 | -0.70022 | 37921 ft | 460 kts | 352° |
| 2026-05-05 06:35 | 46.71598 | -0.71104 | 37926 ft | 460 kts | 352° |
| 2026-05-05 06:35 | 46.77951 | -0.72185 | 37920 ft | 460 kts | 352° |
| 2026-05-05 06:36 | 46.84308 | -0.73251 | 37918 ft | 460 kts | 352° |
| 2026-05-05 06:36 | 46.90665 | -0.74324 | 37916 ft | 460 kts | 352° |
| 2026-05-05 06:37 | 46.97016 | -0.75407 | 37917 ft | 460 kts | 352° |
| 2026-05-05 06:37 | 47.03367 | -0.76494 | 37919 ft | 459 kts | 352° |
| 2026-05-05 06:38 | 47.09713 | -0.77575 | 37913 ft | 459 kts | 353° |
| 2026-05-05 06:38 | 47.16062 | -0.78663 | 37904 ft | 459 kts | 352° |
| 2026-05-05 06:39 | 47.22408 | -0.79762 | 37902 ft | 459 kts | 352° |
| 2026-05-05 06:39 | 47.28754 | -0.80866 | 37898 ft | 459 kts | 353° |
| 2026-05-05 06:40 | 47.35098 | -0.81965 | 37902 ft | 459 kts | 353° |
| 2026-05-05 06:40 | 47.41442 | -0.83054 | 37894 ft | 459 kts | 353° |
| 2026-05-05 06:41 | 47.47729 | -0.84141 | 37907 ft | 459 kts | 353° |
| 2026-05-05 06:41 | 47.54049 | -0.85257 | 37902 ft | 459 kts | 352° |
| 2026-05-05 06:42 | 47.60349 | -0.86735 | 37891 ft | 458 kts | 349° |
| 2026-05-05 06:42 | 47.66610 | -0.88524 | 37889 ft | 458 kts | 348° |
| 2026-05-05 06:43 | 47.72874 | -0.90292 | 37892 ft | 458 kts | 349° |
| 2026-05-05 06:43 | 47.78125 | -0.91702 | 37892 ft | 458 kts | 349° |
| 2026-05-05 06:44 | 47.84363 | -0.93339 | 37898 ft | 458 kts | 349° |
| 2026-05-05 06:44 | 47.90635 | -0.94995 | 37891 ft | 458 kts | 349° |
| 2026-05-05 06:45 | 47.96902 | -0.96669 | 37892 ft | 457 kts | 349° |
| 2026-05-05 06:45 | 48.03163 | -0.98358 | 37890 ft | 457 kts | 349° |
| 2026-05-05 06:46 | 48.09421 | -1.00043 | 37889 ft | 457 kts | 349° |
| 2026-05-05 06:46 | 48.15677 | -1.01728 | 37888 ft | 457 kts | 349° |
| 2026-05-05 06:47 | 48.21933 | -1.03426 | 37896 ft | 457 kts | 349° |
| 2026-05-05 06:47 | 48.28188 | -1.05132 | 37901 ft | 457 kts | 349° |
| 2026-05-05 06:48 | 48.34438 | -1.06829 | 37901 ft | 456 kts | 349° |
| 2026-05-05 06:48 | 48.40688 | -1.08525 | 37903 ft | 456 kts | 349° |
| 2026-05-05 06:49 | 48.46937 | -1.10237 | 37901 ft | 456 kts | 349° |
| 2026-05-05 06:49 | 48.53180 | -1.11953 | 37903 ft | 456 kts | 349° |
| 2026-05-05 06:50 | 48.59389 | -1.13659 | 37908 ft | 456 kts | 349° |
| 2026-05-05 06:50 | 48.65634 | -1.15373 | 37911 ft | 456 kts | 349° |
| 2026-05-05 06:51 | 48.71883 | -1.17098 | 37908 ft | 457 kts | 349° |
| 2026-05-05 06:51 | 48.78134 | -1.18830 | 37913 ft | 457 kts | 349° |
| 2026-05-05 06:52 | 48.84387 | -1.20571 | 37921 ft | 457 kts | 349° |
| 2026-05-05 06:52 | 48.90641 | -1.22311 | 37923 ft | 457 kts | 349° |
| 2026-05-05 06:53 | 48.96894 | -1.24052 | 37932 ft | 457 kts | 349° |
| 2026-05-05 06:53 | 49.03148 | -1.25800 | 37939 ft | 457 kts | 349° |
| 2026-05-05 06:54 | 49.09401 | -1.27550 | 37933 ft | 456 kts | 349° |
| 2026-05-05 06:54 | 49.15644 | -1.29314 | 37934 ft | 456 kts | 348° |
| 2026-05-05 06:55 | 49.21886 | -1.31077 | 37941 ft | 456 kts | 349° |
| 2026-05-05 06:55 | 49.28125 | -1.32837 | 37948 ft | 456 kts | 349° |
| 2026-05-05 06:56 | 49.34321 | -1.34589 | 37973 ft | 456 kts | 349° |
| 2026-05-05 06:56 | 49.40552 | -1.36355 | 37978 ft | 455 kts | 349° |
| 2026-05-05 06:57 | 49.46764 | -1.38117 | 37987 ft | 454 kts | 349° |
| 2026-05-05 06:57 | 49.52974 | -1.39896 | 37989 ft | 453 kts | 348° |
| 2026-05-05 06:58 | 49.59192 | -1.41451 | 37988 ft | 453 kts | 356° |
| 2026-05-05 06:58 | 49.65495 | -1.41095 | 37988 ft | 453 kts | 3° |
| 2026-05-05 06:59 | 49.71794 | -1.40527 | 37986 ft | 453 kts | 3° |
| 2026-05-05 06:59 | 49.78096 | -1.39985 | 37984 ft | 453 kts | 2° |
| 2026-05-05 07:00 | 49.84399 | -1.39439 | 37976 ft | 454 kts | 2° |
| 2026-05-05 07:00 | 49.90703 | -1.38875 | 37976 ft | 454 kts | 2° |
| 2026-05-05 07:01 | 49.97008 | -1.38316 | 37974 ft | 454 kts | 2° |
| 2026-05-05 07:01 | 50.03273 | -1.37249 | 37980 ft | 453 kts | 8° |
| 2026-05-05 07:02 | 50.09500 | -1.35691 | 37971 ft | 454 kts | 8° |
| 2026-05-05 07:02 | 50.15696 | -1.34152 | 37972 ft | 454 kts | 8° |
| 2026-05-05 07:03 | 50.21940 | -1.32600 | 37980 ft | 454 kts | 8° |
| 2026-05-05 07:03 | 50.28178 | -1.31032 | 37985 ft | 454 kts | 8° |
| 2026-05-05 07:04 | 50.34416 | -1.29458 | 37990 ft | 454 kts | 8° |
| 2026-05-05 07:04 | 50.40652 | -1.27894 | 37988 ft | 453 kts | 8° |
| 2026-05-05 07:05 | 50.46874 | -1.26336 | 37998 ft | 453 kts | 8° |
| 2026-05-05 07:05 | 50.53119 | -1.25898 | 38001 ft | 449 kts | 353° |
| 2026-05-05 07:06 | 50.59265 | -1.26856 | 37999 ft | 448 kts | 353° |
| 2026-05-05 07:06 | 50.65474 | -1.27819 | 38003 ft | 448 kts | 353° |
| 2026-05-05 07:07 | 50.71638 | -1.28782 | 38018 ft | 446 kts | 353° |
| 2026-05-05 07:07 | 50.77776 | -1.29732 | 38023 ft | 445 kts | 353° |
| 2026-05-05 07:08 | 50.83937 | -1.30687 | 38022 ft | 444 kts | 353° |
| 2026-05-05 07:08 | 50.90087 | -1.31646 | 38030 ft | 444 kts | 353° |
| 2026-05-05 07:09 | 50.96223 | -1.32607 | 38023 ft | 443 kts | 353° |
| 2026-05-05 07:09 | 51.02357 | -1.33572 | 38019 ft | 443 kts | 353° |
| 2026-05-05 07:10 | 51.08486 | -1.34538 | 38018 ft | 442 kts | 353° |
| 2026-05-05 07:10 | 51.14608 | -1.35510 | 38021 ft | 442 kts | 353° |
| 2026-05-05 07:11 | 51.20732 | -1.36479 | 38015 ft | 442 kts | 353° |
| 2026-05-05 07:11 | 51.26849 | -1.37444 | 38014 ft | 442 kts | 353° |
| 2026-05-05 07:12 | 51.32969 | -1.38408 | 38020 ft | 442 kts | 353° |
| 2026-05-05 07:12 | 51.39048 | -1.39384 | 38013 ft | 442 kts | 353° |
| 2026-05-05 07:13 | 51.45168 | -1.40362 | 38013 ft | 442 kts | 353° |
| 2026-05-05 07:13 | 51.51296 | -1.41350 | 38011 ft | 443 kts | 353° |
| 2026-05-05 07:14 | 51.57426 | -1.42339 | 38032 ft | 443 kts | 353° |
| 2026-05-05 07:14 | 51.63557 | -1.43331 | 38034 ft | 443 kts | 353° |
| 2026-05-05 07:15 | 51.69689 | -1.44321 | 38038 ft | 443 kts | 353° |
| 2026-05-05 07:15 | 51.75830 | -1.45321 | 38036 ft | 443 kts | 353° |
| 2026-05-05 07:16 | 51.81963 | -1.46317 | 38036 ft | 443 kts | 353° |
| 2026-05-05 07:16 | 51.88100 | -1.47311 | 38030 ft | 444 kts | 354° |
| 2026-05-05 07:17 | 51.94249 | -1.48312 | 38027 ft | 444 kts | 353° |
| 2026-05-05 07:17 | 52.00356 | -1.49321 | 38031 ft | 444 kts | 353° |
| 2026-05-05 07:18 | 52.06505 | -1.50327 | 38036 ft | 444 kts | 353° |
| 2026-05-05 07:18 | 52.12651 | -1.51337 | 38040 ft | 444 kts | 353° |
| 2026-05-05 07:19 | 52.18795 | -1.52356 | 38041 ft | 444 kts | 353° |
| 2026-05-05 07:19 | 52.24934 | -1.53370 | 38041 ft | 443 kts | 353° |
| 2026-05-05 07:20 | 52.31070 | -1.54393 | 38046 ft | 443 kts | 353° |
| 2026-05-05 07:20 | 52.37185 | -1.55419 | 38063 ft | 443 kts | 353° |
| 2026-05-05 07:21 | 52.43320 | -1.56451 | 38065 ft | 443 kts | 353° |
| 2026-05-05 07:21 | 52.49436 | -1.57477 | 38066 ft | 443 kts | 353° |
| 2026-05-05 07:22 | 52.55573 | -1.58508 | 38065 ft | 443 kts | 353° |
| 2026-05-05 07:22 | 52.61709 | -1.59542 | 38040 ft | 443 kts | 353° |
| 2026-05-05 07:23 | 52.67820 | -1.60571 | 38042 ft | 443 kts | 353° |
| 2026-05-05 07:23 | 52.73933 | -1.61605 | 38048 ft | 443 kts | 353° |
| 2026-05-05 07:24 | 52.80058 | -1.62643 | 38056 ft | 442 kts | 353° |
| 2026-05-05 07:24 | 52.86133 | -1.63672 | 38055 ft | 441 kts | 353° |
| 2026-05-05 07:25 | 52.92236 | -1.64727 | 38052 ft | 441 kts | 353° |
| 2026-05-05 07:25 | 52.98329 | -1.65786 | 38052 ft | 440 kts | 353° |
| 2026-05-05 07:26 | 53.04408 | -1.66913 | 38064 ft | 439 kts | 348° |
| 2026-05-05 07:26 | 53.10194 | -1.69944 | 38064 ft | 436 kts | 338° |
| 2026-05-05 07:27 | 53.15670 | -1.73342 | 38061 ft | 435 kts | 338° |
| 2026-05-05 07:27 | 53.21343 | -1.76861 | 38058 ft | 435 kts | 338° |
| 2026-05-05 07:28 | 53.27012 | -1.80392 | 38064 ft | 434 kts | 338° |
| 2026-05-05 07:28 | 53.32668 | -1.83939 | 38063 ft | 434 kts | 338° |
| 2026-05-05 07:29 | 53.38314 | -1.87476 | 38066 ft | 433 kts | 338° |
| 2026-05-05 07:29 | 53.43962 | -1.91027 | 38063 ft | 433 kts | 338° |
| 2026-05-05 07:30 | 53.49600 | -1.94579 | 38060 ft | 433 kts | 338° |
| 2026-05-05 07:30 | 53.58056 | -1.99931 | 38060 ft | 433 kts | 338° |
| 2026-05-05 07:31 | 53.63690 | -2.03519 | 38057 ft | 433 kts | 338° |
| 2026-05-05 07:31 | 53.69324 | -2.07104 | 38058 ft | 433 kts | 338° |
| 2026-05-05 07:32 | 53.74861 | -2.10638 | 38073 ft | 432 kts | 338° |
| 2026-05-05 07:32 | 53.80448 | -2.14365 | 38074 ft | 431 kts | 336° |
| 2026-05-05 07:33 | 53.85064 | -2.17564 | 38070 ft | 431 kts | 336° |
| 2026-05-05 07:33 | 53.91503 | -2.22021 | 38067 ft | 430 kts | 336° |
| 2026-05-05 07:34 | 53.97063 | -2.25841 | 38043 ft | 435 kts | 336° |
| 2026-05-05 07:34 | 54.02676 | -2.29954 | 38043 ft | 441 kts | 329° |
| 2026-05-05 07:35 | 54.07175 | -2.34149 | 38046 ft | 443 kts | 329° |
| 2026-05-05 07:35 | 54.12572 | -2.39206 | 38046 ft | 443 kts | 329° |
| 2026-05-05 07:36 | 54.17970 | -2.44281 | 38046 ft | 443 kts | 329° |
| 2026-05-05 07:36 | 54.23367 | -2.49371 | 38060 ft | 443 kts | 329° |
| 2026-05-05 07:37 | 54.28759 | -2.54472 | 38062 ft | 443 kts | 329° |
| 2026-05-05 07:37 | 54.34149 | -2.59579 | 38064 ft | 443 kts | 329° |
| 2026-05-05 07:38 | 54.36843 | -2.62140 | 37833 ft | 443 kts | 329° |
| 2026-05-05 07:38 | 54.39513 | -2.64687 | 37560 ft | 441 kts | 329° |
| 2026-05-05 07:38 | 54.42194 | -2.67250 | 37280 ft | 441 kts | 329° |
| 2026-05-05 07:38 | 54.44879 | -2.69814 | 37011 ft | 441 kts | 329° |
| 2026-05-05 07:39 | 54.47547 | -2.72360 | 36755 ft | 441 kts | 328° |
| 2026-05-05 07:39 | 54.50225 | -2.74916 | 36496 ft | 440 kts | 328° |
| 2026-05-05 07:39 | 54.52902 | -2.77479 | 36245 ft | 440 kts | 328° |
| 2026-05-05 07:39 | 54.55553 | -2.80023 | 35987 ft | 440 kts | 328° |
| 2026-05-05 07:40 | 54.58224 | -2.82599 | 35502 ft | 441 kts | 328° |
| 2026-05-05 07:40 | 54.60916 | -2.85204 | 34588 ft | 446 kts | 328° |
| 2026-05-05 07:40 | 54.63593 | -2.87792 | 33710 ft | 448 kts | 328° |
| 2026-05-05 07:40 | 54.66309 | -2.90418 | 32620 ft | 452 kts | 328° |
| 2026-05-05 07:41 | 54.69067 | -2.93085 | 31566 ft | 455 kts | 328° |
| 2026-05-05 07:41 | 54.71838 | -2.95767 | 30508 ft | 459 kts | 328° |
| 2026-05-05 07:41 | 54.74624 | -2.98471 | 29563 ft | 457 kts | 327° |
| 2026-05-05 07:41 | 54.77397 | -3.01166 | 28344 ft | 459 kts | 327° |
| 2026-05-05 07:42 | 54.80192 | -3.03882 | 27024 ft | 462 kts | 327° |
| 2026-05-05 07:42 | 54.82999 | -3.06622 | 25876 ft | 463 kts | 327° |
| 2026-05-05 07:42 | 54.85810 | -3.09372 | 25400 ft | 451 kts | 327° |
| 2026-05-05 07:42 | 54.88491 | -3.11998 | 25068 ft | 446 kts | 327° |
| 2026-05-05 07:43 | 54.91182 | -3.14640 | 24640 ft | 442 kts | 327° |
| 2026-05-05 07:43 | 54.93854 | -3.17265 | 24203 ft | 440 kts | 327° |
| 2026-05-05 07:43 | 54.96507 | -3.19875 | 23776 ft | 437 kts | 327° |
| 2026-05-05 07:43 | 54.99142 | -3.22468 | 23311 ft | 433 kts | 327° |
| 2026-05-05 07:44 | 55.01755 | -3.25050 | 22896 ft | 430 kts | 327° |
| 2026-05-05 07:44 | 55.04347 | -3.27610 | 22474 ft | 427 kts | 327° |
| 2026-05-05 07:44 | 55.06922 | -3.30158 | 22061 ft | 425 kts | 327° |
| 2026-05-05 07:44 | 55.09482 | -3.32699 | 21648 ft | 422 kts | 327° |
| 2026-05-05 07:45 | 55.12028 | -3.35231 | 21243 ft | 420 kts | 327° |
| 2026-05-05 07:45 | 55.14561 | -3.37750 | 20834 ft | 417 kts | 327° |
| 2026-05-05 07:45 | 55.17076 | -3.40260 | 20432 ft | 415 kts | 327° |
| 2026-05-05 07:45 | 55.19576 | -3.42755 | 20030 ft | 412 kts | 327° |
| 2026-05-05 07:46 | 55.22062 | -3.45238 | 19182 ft | 414 kts | 327° |
| 2026-05-05 07:46 | 55.24581 | -3.47760 | 18094 ft | 418 kts | 327° |
| 2026-05-05 07:46 | 55.27109 | -3.50297 | 17142 ft | 417 kts | 328° |
| 2026-05-05 07:46 | 55.29600 | -3.52793 | 16455 ft | 409 kts | 328° |
| 2026-05-05 07:47 | 55.32062 | -3.55261 | 15698 ft | 405 kts | 328° |
| 2026-05-05 07:47 | 55.34490 | -3.57706 | 14994 ft | 400 kts | 328° |
| 2026-05-05 07:47 | 55.36895 | -3.60129 | 14336 ft | 396 kts | 328° |
| 2026-05-05 07:47 | 55.39274 | -3.62526 | 13693 ft | 392 kts | 328° |
| 2026-05-05 07:48 | 55.41626 | -3.64899 | 13010 ft | 388 kts | 328° |
| 2026-05-05 07:48 | 55.43939 | -3.67237 | 12652 ft | 375 kts | 328° |
| 2026-05-05 07:48 | 55.46142 | -3.69468 | 12525 ft | 355 kts | 328° |
| 2026-05-05 07:48 | 55.48181 | -3.71533 | 12385 ft | 328 kts | 328° |
| 2026-05-05 07:49 | 55.50084 | -3.73459 | 12264 ft | 304 kts | 328° |
| 2026-05-05 07:49 | 55.51862 | -3.75263 | 11947 ft | 289 kts | 328° |
| 2026-05-05 07:49 | 55.53583 | -3.77017 | 11402 ft | 284 kts | 328° |
| 2026-05-05 07:49 | 55.55280 | -3.78751 | 10807 ft | 281 kts | 328° |
| 2026-05-05 07:50 | 55.56982 | -3.80489 | 10111 ft | 282 kts | 328° |
| 2026-05-05 07:50 | 55.58642 | -3.82198 | 9666 ft | 272 kts | 328° |
| 2026-05-05 07:50 | 55.60262 | -3.83880 | 9065 ft | 269 kts | 328° |
| 2026-05-05 07:50 | 55.61863 | -3.85555 | 8442 ft | 266 kts | 328° |
| 2026-05-05 07:51 | 55.63444 | -3.87224 | 7817 ft | 264 kts | 328° |
| 2026-05-05 07:51 | 55.65013 | -3.88899 | 7200 ft | 262 kts | 328° |
| 2026-05-05 07:51 | 55.66542 | -3.90549 | 6594 ft | 260 kts | 328° |
| 2026-05-05 07:51 | 55.68093 | -3.92241 | 5936 ft | 258 kts | 328° |
| 2026-05-05 07:52 | 55.69608 | -3.93909 | 5304 ft | 255 kts | 328° |
| 2026-05-05 07:52 | 55.71117 | -3.95536 | 4652 ft | 253 kts | 329° |
| 2026-05-05 07:52 | 55.72599 | -3.97124 | 4031 ft | 250 kts | 330° |
| 2026-05-05 07:52 | 55.74067 | -3.98728 | 3590 ft | 240 kts | 329° |
| 2026-05-05 07:53 | 55.75519 | -3.99826 | 3453 ft | 217 kts | 347° |
| 2026-05-05 07:53 | 55.76933 | -4.00405 | 3275 ft | 202 kts | 349° |
| 2026-05-05 07:53 | 55.78291 | -4.00911 | 2910 ft | 197 kts | 349° |
| 2026-05-05 07:53 | 55.79560 | -4.01376 | 2591 ft | 196 kts | 349° |
| 2026-05-05 07:54 | 55.80882 | -4.01851 | 2319 ft | 193 kts | 349° |
| 2026-05-05 07:54 | 55.82206 | -4.02315 | 2054 ft | 193 kts | 348° |
| 2026-05-05 07:54 | 55.83403 | -4.03312 | 2012 ft | 193 kts | 323° |
| 2026-05-05 07:54 | 55.84439 | -4.04839 | 2004 ft | 194 kts | 320° |
| 2026-05-05 07:55 | 55.85454 | -4.06424 | 2008 ft | 193 kts | 319° |
| 2026-05-05 07:55 | 55.86455 | -4.08010 | 2005 ft | 193 kts | 319° |
| 2026-05-05 07:55 | 55.87461 | -4.09602 | 2006 ft | 193 kts | 319° |
| 2026-05-05 07:55 | 55.88467 | -4.11195 | 2008 ft | 191 kts | 319° |
| 2026-05-05 07:56 | 55.89425 | -4.12728 | 1999 ft | 181 kts | 319° |
| 2026-05-05 07:56 | 55.90361 | -4.14228 | 2004 ft | 180 kts | 319° |
| 2026-05-05 07:56 | 55.91273 | -4.15688 | 2045 ft | 178 kts | 319° |
| 2026-05-05 07:56 | 55.92121 | -4.17181 | 1996 ft | 165 kts | 308° |
| 2026-05-05 07:57 | 55.92700 | -4.18916 | 2001 ft | 161 kts | 300° |
| 2026-05-05 07:57 | 55.93155 | -4.20723 | 2008 ft | 159 kts | 292° |
| 2026-05-05 07:57 | 55.93493 | -4.22590 | 2005 ft | 158 kts | 290° |
| 2026-05-05 07:57 | 55.93715 | -4.24517 | 2010 ft | 160 kts | 281° |
| 2026-05-05 07:58 | 55.93855 | -4.26483 | 2008 ft | 160 kts | 279° |
| 2026-05-05 07:58 | 55.93980 | -4.28457 | 2003 ft | 161 kts | 278° |
| 2026-05-05 07:58 | 55.93826 | -4.30436 | 1812 ft | 160 kts | 251° |
| 2026-05-05 07:58 | 55.93237 | -4.31992 | 1627 ft | 147 kts | 229° |
| 2026-05-05 07:59 | 55.92542 | -4.33289 | 1432 ft | 142 kts | 230° |
| 2026-05-05 07:59 | 55.91875 | -4.34544 | 1249 ft | 140 kts | 229° |
| 2026-05-05 07:59 | 55.91204 | -4.35808 | 1053 ft | 139 kts | 229° |
| 2026-05-05 07:59 | 55.90541 | -4.37045 | 868 ft | 137 kts | 230° |
| 2026-05-05 08:00 | 55.89895 | -4.38264 | 670 ft | 136 kts | 231° |
| 2026-05-05 08:00 | 55.89244 | -4.39490 | 490 ft | 133 kts | 231° |
| 2026-05-05 08:00 | 55.88613 | -4.40674 | 301 ft | 130 kts | 231° |
| 2026-05-05 08:00 | 55.87997 | -4.41819 | 134 ft | 128 kts | 230° |
| 2026-05-05 08:01 | 55.87398 | -4.42943 | 31 ft | 115 kts | 230° |
| 2026-05-05 08:01 | 55.86995 | -4.43704 | 29 ft | 45 kts | 226° |
| 2026-05-05 08:01 | 55.86813 | -4.44043 | 29 ft | 36 kts | 226° |
| 2026-05-05 08:01 | 55.86683 | -4.44265 | 29 ft | 17 kts | 205° |
| 2026-05-05 08:02 | 55.86620 | -4.44205 | 29 ft | 11 kts | 101° |
| 2026-05-05 08:02 | 55.86619 | -4.44088 | 29 ft | 9 kts | 90° |
| 2026-05-05 08:02 | 55.86622 | -4.43976 | 29 ft | 9 kts | 74° |
| 2026-05-05 08:02 | 55.86665 | -4.43883 | 29 ft | 10 kts | 47° |
| 2026-05-05 08:03 | 55.86716 | -4.43787 | 29 ft | 11 kts | 46° |
| 2026-05-05 08:03 | 55.86737 | -4.43655 | 29 ft | 12 kts | 107° |
| 2026-05-05 08:03 | 55.86666 | -4.43591 | 29 ft | 12 kts | 164° |
| 2026-05-05 08:03 | 55.86581 | -4.43547 | 29 ft | 13 kts | 163° |
| 2026-05-05 08:04 | 55.86504 | -4.43509 | 29 ft | 8 kts | 175° |
| 2026-05-05 08:04 | 55.86481 | -4.43584 | 29 ft | 7 kts | 257° |
| 2026-05-05 08:04 | 55.86475 | -4.43622 | 29 ft | 0 kts | 253° |